Time;durP1;ratioP1;P1;durP2;ratioP2;P2;SDS_P1;SDS_P2;PMS_P1;PMS_P2;Temp;Humidity;BMP_temperature;BMP_pressure;BME280_temperature;BME280_humidity;BME280_pressure;Samples;Min_cycle;Max_cycle;Signal;HPM_P1;HPM_P2
2023/09/03 00:02:09;;;;;;;;;13.00;13.00;;;;;17.10;84.27;100120.03;6273899;20;3529674;-60
2023/09/03 00:04:38;;;;;;;;;12.00;12.00;;;;;17.29;84.05;100111.25;6273571;20;3528691;-60
2023/09/03 00:07:06;;;;;;;;;15.00;14.00;;;;;17.07;84.01;100120.31;6311611;20;3539887;-59
2023/09/03 00:09:34;;;;;;;;;12.00;11.00;;;;;17.04;84.06;100107.84;6308119;20;2792697;-60
2023/09/03 00:12:04;;;;;;;;;14.33;12.00;;;;;17.36;83.81;100114.34;6276751;20;3528381;-60
2023/09/03 00:14:32;;;;;;;;;12.00;12.00;;;;;17.42;83.63;100106.53;6279051;20;2794124;-60
2023/09/03 00:17:01;;;;;;;;;10.33;10.33;;;;;17.37;83.80;100102.47;6274556;20;3510719;-60
2023/09/03 00:19:28;;;;;;;;;13.00;13.00;;;;;17.22;83.69;100097.34;6306071;20;2799392;-60
2023/09/03 00:21:57;;;;;;;;;13.33;12.33;;;;;17.28;83.90;100087.81;6277643;20;3529580;-60
2023/09/03 00:24:26;;;;;;;;;11.00;11.00;;;;;17.37;83.74;100092.47;6306531;20;3516006;-60
2023/09/03 00:26:54;;;;;;;;;9.33;9.33;;;;;17.10;83.70;100084.78;6311487;20;3483615;-60
2023/09/03 00:29:23;;;;;;;;;14.00;11.00;;;;;16.97;84.31;100084.91;6312118;20;3520279;-60
2023/09/03 00:31:52;;;;;;;;;13.33;13.00;;;;;17.23;83.93;100077.34;6311060;20;3521121;-60
2023/09/03 00:34:21;;;;;;;;;14.00;12.00;;;;;17.09;83.96;100070.34;6311112;20;3521882;-60
2023/09/03 00:36:50;;;;;;;;;12.33;11.00;;;;;16.87;84.37;100067.66;6279361;20;3507582;-60
2023/09/03 00:39:18;;;;;;;;;11.00;8.00;;;;;16.93;84.24;100066.28;6309354;20;2754495;-60
2023/09/03 00:41:47;;;;;;;;;14.50;13.00;;;;;16.77;84.19;100067.56;6311576;20;2814909;-60
2023/09/03 00:44:16;;;;;;;;;13.00;10.00;;;;;16.95;84.49;100070.59;6280637;20;3520030;-59
2023/09/03 00:46:46;;;;;;;;;7.00;6.40;;;;;17.05;83.97;100059.88;6337819;20;2752378;-59
2023/09/03 00:49:22;;;;;;;;;14.00;13.33;;;;;16.74;84.23;100062.34;6307919;20;3523252;-59
2023/09/03 00:51:52;;;;;;;;;12.33;12.00;;;;;16.88;84.06;100064.84;6308567;20;3542047;-61
2023/09/03 00:54:25;;;;;;;;;14.67;12.00;;;;;16.81;84.48;100069.03;6272259;20;3526328;-60
2023/09/03 00:56:54;;;;;;;;;11.00;11.00;;;;;16.68;84.29;100071.00;6277314;20;3518994;-60
2023/09/03 00:59:24;;;;;;;;;11.00;10.00;;;;;16.62;84.64;100063.34;6309592;20;3511705;-60
2023/09/03 01:01:53;;;;;;;;;13.00;13.00;;;;;16.62;84.97;100068.78;6305094;20;3522144;-60
2023/09/03 01:04:21;;;;;;;;;13.00;12.00;;;;;16.84;84.66;100071.50;6278179;20;2484398;-60
2023/09/03 01:06:52;;;;;;;;;12.67;11.67;;;;;16.91;84.50;100071.88;6278381;20;3515925;-60
2023/09/03 01:09:20;;;;;;;;;10.00;10.00;;;;;16.73;84.19;100074.19;6306951;20;3504442;-60
2023/09/03 01:12:19;;;;;;;;;14.00;14.00;;;;;16.93;84.30;100078.03;6311872;20;2796196;-60
2023/09/03 01:15:14;;;;;;;;;15.33;13.33;;;;;16.81;84.48;100073.59;6279991;20;3531129;-60
2023/09/03 01:18:14;;;;;;;;;13.00;11.33;;;;;17.03;84.90;100064.56;6276950;20;3529445;-60
2023/09/03 01:21:43;;;;;;;;;14.00;11.33;;;;;16.76;84.69;100068.50;6309230;20;3510702;-60
2023/09/03 01:24:50;;;;;;;;;14.50;12.00;;;;;16.81;84.37;100066.31;6309965;20;2487920;-61
2023/09/03 01:28:02;;;;;;;;;15.33;14.00;;;;;16.72;84.70;100056.22;6281132;20;3532558;-61
2023/09/03 01:30:31;;;;;;;;;14.00;14.00;;;;;16.81;84.74;100066.31;6274668;20;3531561;-59
2023/09/03 01:33:01;;;;;;;;;13.00;13.00;;;;;16.52;85.05;100067.78;6280601;20;2796287;-60
2023/09/03 01:35:31;;;;;;;;;16.00;14.33;;;;;16.60;85.22;100062.63;6281096;20;3541940;-54
2023/09/03 01:37:59;;;;;;;;;15.00;14.00;;;;;16.49;85.02;100066.19;6274027;20;2802548;-55
2023/09/03 01:40:28;;;;;;;;;11.33;11.33;;;;;16.51;85.56;100061.50;6276081;20;3531662;-55
2023/09/03 01:42:56;;;;;;;;;14.00;14.00;;;;;16.48;85.42;100055.47;6274466;20;3521188;-56
2023/09/03 01:45:41;;;;;;;;;11.50;11.50;;;;;16.63;85.42;100065.06;6277394;20;2800339;-54
2023/09/03 01:48:43;;;;;;;;;14.33;13.00;;;;;16.68;85.29;100062.84;6276797;20;3515988;-53
2023/09/03 01:51:51;;;;;;;;;12.00;12.00;;;;;16.27;85.61;100058.88;6307320;20;3538865;-51
2023/09/03 01:54:39;;;;;;;;;15.33;12.33;;;;;16.30;85.53;100055.06;6274330;20;3523370;-54
2023/09/03 01:57:30;;;;;;;;;14.33;13.00;;;;;16.13;85.63;100051.00;6273309;20;3526533;-55
2023/09/03 02:00:11;;;;;;;;;12.00;12.00;;;;;15.97;85.59;100052.19;6305470;20;3535716;-55
2023/09/03 02:02:47;;;;;;;;;16.67;13.67;;;;;16.07;85.12;100048.78;6276307;20;3550299;-54
2023/09/03 02:05:17;;;;;;;;;13.67;13.67;;;;;15.96;85.31;100050.50;6274444;20;3535776;-54
2023/09/03 02:07:46;;;;;;;;;14.00;14.00;;;;;15.75;85.41;100042.19;6306829;20;3533845;-55
2023/09/03 02:10:16;;;;;;;;;12.50;12.50;;;;;15.71;85.88;100047.94;6278847;20;2492013;-52
2023/09/03 02:12:45;;;;;;;;;14.00;14.00;;;;;15.96;85.24;100045.06;6275872;20;3529582;-55
2023/09/03 02:15:14;;;;;;;;;10.00;9.20;;;;;15.68;85.17;100040.03;6333137;20;2764841;-51
2023/09/03 02:17:43;;;;;;;;;13.00;12.67;;;;;15.75;85.25;100042.19;6276878;20;3531537;-56
2023/09/03 02:20:11;;;;;;;;;13.50;13.50;;;;;15.66;85.62;100037.44;6274922;20;2491968;-56
2023/09/03 02:22:40;;;;;;;;;14.33;11.00;;;;;15.73;85.94;100048.72;6277021;20;3515019;-54
2023/09/03 02:25:09;;;;;;;;;11.33;11.33;;;;;15.70;86.04;100051.66;6307411;20;3534807;-54
2023/09/03 02:27:38;;;;;;;;;14.67;13.67;;;;;15.65;85.96;100051.13;6271554;20;3523382;-55
2023/09/03 02:30:07;;;;;;;;;13.00;13.00;;;;;15.73;86.29;100054.13;6275629;20;3532614;-54
2023/09/03 02:32:35;;;;;;;;;15.00;14.00;;;;;15.72;86.25;100047.84;6278355;20;2491992;-55
2023/09/03 02:35:05;;;;;;;;;20.00;16.00;;;;;15.84;85.98;100056.84;6273865;20;2826325;-54
2023/09/03 02:37:34;;;;;;;;;17.00;15.50;;;;;15.96;86.08;100049.63;6279781;20;2825283;-55
2023/09/03 02:40:03;;;;;;;;;15.00;14.00;;;;;15.83;85.85;100054.28;6280757;20;2804463;-54
2023/09/03 02:42:37;;;;;;;;;14.00;14.00;;;;;15.98;85.87;100056.66;6276647;20;3526446;-54
2023/09/03 02:45:07;;;;;;;;;19.00;16.00;;;;;16.13;85.52;100056.41;6274013;20;2829470;-54
2023/09/03 02:47:35;;;;;;;;;14.00;14.00;;;;;16.01;85.88;100053.69;6275216;20;2810732;-55
2023/09/03 02:50:05;;;;;;;;;17.00;15.00;;;;;15.80;86.25;100055.38;6277389;20;2492159;-54
2023/09/03 02:52:33;;;;;;;;;13.00;13.00;;;;;15.91;86.28;100055.41;6278367;20;2496159;-54
2023/09/03 02:55:01;;;;;;;;;13.00;13.00;;;;;15.83;86.44;100055.13;6280685;20;2491951;-55
2023/09/03 02:57:29;;;;;;;;;12.33;10.00;;;;;16.07;86.13;100056.91;6277700;20;3513970;-55
2023/09/03 02:59:58;;;;;;;;;16.00;14.00;;;;;16.12;85.63;100054.72;6309669;20;3534670;-51
2023/09/03 03:02:26;;;;;;;;;17.00;15.00;;;;;15.93;85.68;100050.75;6306951;20;2814865;-54
2023/09/03 03:04:55;;;;;;;;;15.00;14.00;;;;;16.16;85.71;100046.19;6277431;20;3530444;-53
2023/09/03 03:07:25;;;;;;;;;14.67;14.67;;;;;16.16;85.77;100056.19;6275555;20;3530473;-54
2023/09/03 03:09:53;;;;;;;;;14.50;13.50;;;;;15.90;85.96;100053.66;6280596;20;2804603;-53
2023/09/03 03:12:21;;;;;;;;;12.00;12.00;;;;;15.66;86.06;100047.41;6276110;20;2491966;-54
2023/09/03 03:14:49;;;;;;;;;13.00;13.00;;;;;15.66;86.51;100050.97;6276111;20;2500346;-54
2023/09/03 03:17:18;;;;;;;;;13.67;13.00;;;;;15.53;86.84;100048.38;6275550;20;3530474;-52
2023/09/03 03:19:50;;;;;;;;;15.00;15.00;;;;;15.79;86.65;100051.78;6278370;20;2491991;-55
2023/09/03 03:22:19;;;;;;;;;14.67;14.67;;;;;15.85;86.25;100066.72;6278473;20;3529487;-54
2023/09/03 03:24:47;;;;;;;;;15.00;15.00;;;;;15.71;86.43;100050.66;6307559;20;3528399;-54
2023/09/03 03:27:17;;;;;;;;;16.67;12.67;;;;;15.53;86.21;100053.78;6276050;20;3542226;-55
2023/09/03 03:29:46;;;;;;;;;14.33;14.00;;;;;15.18;86.54;100053.72;6279732;20;3527503;-54
2023/09/03 03:32:19;;;;;;;;;14.67;14.33;;;;;15.15;86.37;100060.22;6275387;20;3539813;-54
2023/09/03 03:34:48;;;;;;;;;12.00;12.00;;;;;15.03;86.26;100063.84;6276394;20;3517044;-54
2023/09/03 03:37:17;;;;;;;;;13.00;13.00;;;;;15.13;85.91;100067.59;6305982;20;3537909;-54
2023/09/03 03:39:51;;;;;;;;;11.00;11.00;;;;;15.21;85.62;100068.88;6281374;20;2804421;-55
2023/09/03 03:42:19;;;;;;;;;10.00;10.00;;;;;14.97;85.59;100079.66;6281823;20;2791987;-55
2023/09/03 03:44:47;;;;;;;;;16.00;13.00;;;;;15.14;85.79;100085.56;6276694;20;2804570;-55
2023/09/03 03:47:15;;;;;;;;;20.00;13.00;;;;;15.03;85.72;100081.91;6273231;20;2491932;-53
2023/09/03 03:49:44;;;;;;;;;14.67;14.00;;;;;15.31;85.86;100094.25;6277686;20;3536758;-54
2023/09/03 03:52:12;;;;;;;;;15.00;12.00;;;;;15.07;85.89;100089.69;6273725;20;3540919;-54
2023/09/03 03:54:41;;;;;;;;;14.00;13.33;;;;;15.19;86.11;100093.31;6274160;20;3525520;-55
2023/09/03 03:57:10;;;;;;;;;16.33;14.00;;;;;15.06;86.14;100092.50;6276871;20;3546152;-56
2023/09/03 03:59:39;;;;;;;;;15.00;13.00;;;;;15.42;86.54;100094.31;6270254;20;3528415;-54
2023/09/03 04:02:06;;;;;;;;;14.00;13.00;;;;;15.73;86.24;100103.72;6276058;20;2804587;-55
2023/09/03 04:04:35;;;;;;;;;13.67;12.00;;;;;15.80;86.61;100109.53;6277381;20;3528410;-55
2023/09/03 04:07:05;;;;;;;;;17.33;15.33;;;;;15.96;86.49;100115.50;6276107;20;3538896;-55
2023/09/03 04:09:35;;;;;;;;;17.50;17.00;;;;;16.19;86.21;100112.81;6276985;20;2837771;-55
2023/09/03 04:12:04;;;;;;;;;13.50;13.50;;;;;16.11;86.51;100109.84;6273938;20;2491943;-55
2023/09/03 04:14:31;;;;;;;;;15.00;15.00;;;;;16.36;86.20;100136.75;6276562;20;2494108;-55
2023/09/03 04:16:59;;;;;;;;;16.50;14.50;;;;;15.88;85.82;100185.63;6276495;20;2491971;-54
2023/09/03 04:19:28;;;;;;;;;17.67;16.00;;;;;15.57;86.28;100196.00;6277618;20;3554569;-54
2023/09/03 04:21:57;;;;;;;;;32.67;28.67;;;;;16.05;86.55;100183.47;6308115;20;3590004;-53
2023/09/03 04:24:25;;;;;;;;;27.67;26.67;;;;;16.54;86.79;100187.81;6279206;20;3588907;-53
2023/09/03 04:26:54;;;;;;;;;26.00;24.67;;;;;16.86;87.06;100202.41;6276159;20;3585796;-53
2023/09/03 04:29:23;;;;;;;;;22.00;20.00;;;;;16.92;87.08;100200.22;6273368;20;3572630;-55
2023/09/03 04:31:51;;;;;;;;;18.33;17.67;;;;;17.03;86.73;100201.06;6276789;20;3571126;-55
2023/09/03 04:34:20;;;;;;;;;18.00;18.00;;;;;17.21;86.87;100196.00;6272419;20;2836791;-54
2023/09/03 04:36:48;;;;;;;;;15.00;15.00;;;;;17.37;86.53;100205.63;6274360;20;2480501;-54
2023/09/03 04:39:17;;;;;;;;;18.00;17.50;;;;;17.39;86.30;100217.22;6273943;20;2827390;-54
2023/09/03 04:41:45;;;;;;;;;18.00;17.50;;;;;17.34;86.39;100207.59;6276050;20;2837775;-55
2023/09/03 04:44:13;;;;;;;;;18.00;17.00;;;;;17.61;86.33;100203.59;6276995;20;2483627;-55
2023/09/03 04:46:42;;;;;;;;;14.33;14.33;;;;;17.64;85.81;100197.94;6275143;20;3527547;-54
2023/09/03 04:49:10;;;;;;;;;15.50;15.50;;;;;17.71;85.86;100192.84;6272125;20;2483671;-54
2023/09/03 04:51:39;;;;;;;;;12.00;12.00;;;;;17.76;85.68;100179.75;6273159;20;3528386;-55
2023/09/03 04:54:07;;;;;;;;;13.67;12.67;;;;;17.89;85.85;100157.88;6274894;20;3523172;-56
2023/09/03 04:56:36;;;;;;;;;15.67;15.67;;;;;18.00;85.62;100141.50;6271659;20;3548390;-54
2023/09/03 04:59:05;;;;;;;;;15.67;14.67;;;;;17.92;85.63;100163.03;6272905;20;3526702;-53
2023/09/03 05:01:33;;;;;;;;;13.00;13.00;;;;;18.01;85.47;100186.72;6269391;20;2483620;-55
2023/09/03 05:04:03;;;;;;;;;13.00;13.00;;;;;17.96;85.82;100192.53;6281212;20;2801474;-55
2023/09/03 05:06:31;;;;;;;;;10.00;10.00;;;;;18.09;85.12;100197.81;6278776;20;2783684;-55
2023/09/03 05:08:59;;;;;;;;;11.00;11.00;;;;;18.30;84.33;100169.75;6276714;20;2791958;-54
2023/09/03 05:11:28;;;;;;;;;11.00;9.40;;;;;18.13;84.23;100161.22;6294860;20;2788883;-54
2023/09/03 05:13:56;;;;;;;;;8.00;8.00;;;;;18.19;84.02;100154.38;6285377;20;2746664;-53
2023/09/03 05:16:27;;;;;;;;;9.20;7.40;;;;;18.22;84.29;100159.59;6308812;20;2768069;-54
2023/09/03 05:18:57;;;;;;;;;7.00;7.00;;;;;18.35;83.79;100145.75;6302032;20;2744033;-54
2023/09/03 05:21:27;;;;;;;;;6.00;6.00;;;;;18.43;83.39;100135.97;6338511;20;2740971;-56
2023/09/03 05:23:58;;;;;;;;;5.86;5.86;;;;;18.62;83.64;100129.75;6357435;20;3449281;-56
2023/09/03 05:26:27;;;;;;;;;4.33;4.00;;;;;19.00;82.74;100125.50;6315194;20;2744023;-56
2023/09/03 05:28:57;;;;;;;;;7.00;5.80;;;;;19.19;82.49;100132.88;6339260;20;2746157;-56
2023/09/03 05:31:27;;;;;;;;;5.00;5.00;;;;;18.83;83.76;100142.50;6330050;20;2743024;-56
2023/09/03 05:34:02;;;;;;;;;7.00;5.80;;;;;19.04;83.29;100131.56;6327922;20;2733664;-57
2023/09/03 05:36:32;;;;;;;;;6.80;5.20;;;;;18.86;83.96;100145.81;6336412;20;2737820;-57
2023/09/03 05:39:01;;;;;;;;;6.00;5.00;;;;;19.00;83.25;100150.00;6311833;20;2747282;-56
2023/09/03 05:41:31;;;;;;;;;4.80;4.80;;;;;19.33;82.72;100136.25;6342294;20;2731552;-57
2023/09/03 05:44:08;;;;;;;;;4.20;3.60;;;;;19.50;82.39;100130.09;6366892;20;1789522;-57
2023/09/03 05:46:38;;;;;;;;;5.00;5.00;;;;;19.57;82.43;100135.84;6338266;20;2745102;-57
2023/09/03 05:49:06;;;;;;;;;5.00;5.00;;;;;19.65;82.27;100130.56;6308380;20;2748161;-57
2023/09/03 05:51:35;;;;;;;;;6.33;5.00;;;;;19.84;80.93;100144.22;6310675;20;2750257;-57
2023/09/03 05:54:07;;;;;;;;;3.60;3.60;;;;;20.21;80.14;100151.66;6333118;20;2751344;-56
2023/09/03 05:56:36;;;;;;;;;3.00;3.00;;;;;20.06;80.21;100147.66;6332778;20;2739859;-55
2023/09/03 05:59:05;;;;;;;;;3.00;3.00;;;;;20.04;79.84;100149.69;6311590;20;2750380;-57
2023/09/03 06:01:35;;;;;;;;;4.67;3.67;;;;;19.71;81.39;100144.47;6314168;20;2743002;-57
2023/09/03 06:04:07;;;;;;;;;2.60;2.60;;;;;19.76;81.30;100146.78;6330351;20;2737856;-57
2023/09/03 06:06:37;;;;;;;;;3.00;3.00;;;;;19.41;81.42;100141.84;6315842;20;2737451;-57
2023/09/03 06:09:06;;;;;;;;;4.00;2.00;;;;;19.64;81.45;100137.88;6311285;20;2754477;-57
2023/09/03 06:11:36;;;;;;;;;3.00;3.00;;;;;19.59;81.63;100129.25;6312817;20;2741953;-57
2023/09/03 06:14:04;;;;;;;;;3.00;3.00;;;;;19.64;81.35;100129.69;6317418;20;2726461;-57
2023/09/03 06:16:34;;;;;;;;;2.00;2.00;;;;;19.82;80.07;100129.84;6335255;20;2746130;-58
2023/09/03 06:19:02;;;;;;;;;1.00;1.00;;;;;19.82;79.95;100127.13;6311353;20;2740017;-56
2023/09/03 06:21:32;;;;;;;;;2.00;2.00;;;;;20.02;79.09;100118.97;6338754;20;2738377;-55
2023/09/03 06:24:03;;;;;;;;;1.67;1.67;;;;;19.75;79.91;100117.81;6310641;20;2746256;-52
2023/09/03 06:26:33;;;;;;;;;3.00;3.00;;;;;19.79;80.42;100124.69;6314522;20;2729697;-56
2023/09/03 06:29:01;;;;;;;;;3.00;3.00;;;;;20.27;79.11;100134.69;6309562;20;2733647;-54
2023/09/03 06:31:29;;;;;;;;;2.67;2.67;;;;;19.77;80.00;100132.16;6310611;20;2727498;-55
2023/09/03 06:33:58;;;;;;;;;5.00;2.00;;;;;19.49;81.60;100151.03;6310077;20;2742105;-56
2023/09/03 06:36:27;;;;;;;;;2.00;2.00;;;;;19.47;82.19;100168.50;6334702;20;2752379;-54
2023/09/03 06:38:56;;;;;;;;;2.67;2.67;;;;;19.81;81.17;100181.78;6280420;20;2738831;-55
2023/09/03 06:41:26;;;;;;;;;4.60;3.00;;;;;20.32;80.03;100192.41;6335110;20;2731569;-56
2023/09/03 06:43:56;;;;;;;;;3.50;3.50;;;;;20.51;79.54;100201.56;6336622;20;2665897;-55
2023/09/03 06:46:24;;;;;;;;;2.67;2.67;;;;;20.54;79.01;100218.56;6311738;20;2742111;-53
2023/09/03 06:48:54;;;;;;;;;2.67;2.67;;;;;20.54;79.58;100217.69;6308498;20;2744422;-55
2023/09/03 06:51:22;;;;;;;;;2.33;2.00;;;;;21.04;77.61;100214.72;6315172;20;2737831;-55
2023/09/03 06:53:51;;;;;;;;;1.67;1.67;;;;;20.62;78.95;100226.00;6312094;20;2744119;-54
2023/09/03 06:56:20;;;;;;;;;3.00;2.00;;;;;20.25;79.12;100229.47;6337529;20;2737877;-52
2023/09/03 06:58:52;;;;;;;;;2.00;2.00;;;;;20.36;79.35;100212.94;6353997;20;3435784;-55
2023/09/03 07:01:21;;;;;;;;;2.67;2.67;;;;;20.27;79.83;100204.75;6313681;20;2736750;-56
2023/09/03 07:03:50;;;;;;;;;1.80;1.80;;;;;20.29;79.33;100203.59;6334624;20;2739999;-56
2023/09/03 07:06:19;;;;;;;;;1.33;1.33;;;;;23.22;73.82;100209.03;6314905;20;2747203;-56
2023/09/03 07:08:52;;;;;;;;;1.20;1.20;;;;;22.44;71.97;100196.16;6334847;20;2744039;-56
2023/09/03 07:11:22;;;;;;;;;2.00;2.00;;;;;21.27;75.29;100188.75;6332932;20;2737817;-61
2023/09/03 07:13:51;;;;;;;;;0.60;0.60;;;;;21.19;76.46;100174.97;6337077;20;2735824;-59
2023/09/03 07:16:20;;;;;;;;;0.00;0.00;;;;;21.57;75.85;100170.34;6316640;20;2732603;-58
2023/09/03 07:18:49;;;;;;;;;1.60;1.60;;;;;22.71;72.57;100166.94;6331025;20;2748185;-59
2023/09/03 07:21:19;;;;;;;;;1.33;1.33;;;;;22.33;72.07;100164.44;6284234;20;2733709;-58
2023/09/03 07:23:49;;;;;;;;;0.60;0.60;;;;;21.65;74.97;100178.63;6336803;20;2737816;-59
2023/09/03 07:26:18;;;;;;;;;2.67;2.67;;;;;21.54;74.67;100189.78;6310685;20;2756662;-56
2023/09/03 07:28:46;;;;;;;;;1.00;1.00;;;;;21.31;74.37;100181.09;6311181;20;2741968;-57
2023/09/03 07:31:16;;;;;;;;;2.20;1.00;;;;;21.51;73.54;100172.81;6338003;20;2731643;-58
2023/09/03 07:33:44;;;;;;;;;1.00;0.00;;;;;21.60;74.94;100167.28;6313849;20;2737836;-58
2023/09/03 07:36:14;;;;;;;;;1.60;1.60;;;;;21.68;72.81;100189.25;6332453;20;2739955;-60
2023/09/03 07:38:44;;;;;;;;;0.60;0.00;;;;;21.11;75.33;100188.50;6333224;20;2730567;-59
2023/09/03 07:41:12;;;;;;;;;0.67;0.67;;;;;21.20;74.24;100179.44;6313467;20;2732711;-59
2023/09/03 07:43:42;;;;;;;;;0.60;0.60;;;;;21.17;74.88;100182.47;6338563;20;2726360;-59
2023/09/03 07:46:12;;;;;;;;;2.00;2.00;;;;;20.98;77.22;100177.06;6334174;20;2756618;-60
2023/09/03 07:48:41;;;;;;;;;2.00;0.60;;;;;21.03;77.02;100170.13;6303144;20;2744056;-60
2023/09/03 07:51:14;;;;;;;;;1.60;1.60;;;;;21.38;76.54;100168.59;6337430;20;2744058;-59
2023/09/03 07:53:43;;;;;;;;;1.00;1.00;;;;;21.51;76.33;100168.19;6333446;20;2753577;-60
2023/09/03 07:56:15;;;;;;;;;1.60;1.60;;;;;21.39;76.45;100170.31;6333047;20;2746188;-60
2023/09/03 07:58:45;;;;;;;;;3.00;1.20;;;;;21.42;75.91;100170.00;6300435;20;2739941;-59
2023/09/03 08:01:16;;;;;;;;;1.60;1.60;;;;;21.42;75.74;100166.41;6335431;20;2739885;-60
2023/09/03 08:03:46;;;;;;;;;1.00;1.00;;;;;21.38;76.09;100162.25;6336043;20;2733707;-60
2023/09/03 08:06:15;;;;;;;;;2.00;2.00;;;;;21.87;75.00;100160.06;6336986;20;1906678;-60
2023/09/03 08:08:44;;;;;;;;;0.00;0.00;;;;;21.85;73.86;100164.81;6278925;20;2733713;-59
2023/09/03 08:11:13;;;;;;;;;3.60;1.60;;;;;21.85;74.39;100164.81;6336880;20;2746161;-61
2023/09/03 08:13:43;;;;;;;;;2.80;1.60;;;;;21.80;73.48;100158.94;6303239;20;2749369;-60
2023/09/03 08:16:13;;;;;;;;;1.60;1.60;;;;;21.76;75.15;100152.09;6305061;20;2744078;-61
2023/09/03 08:18:42;;;;;;;;;2.00;1.20;;;;;21.65;74.42;100143.09;6302821;20;2735760;-60
2023/09/03 08:21:12;;;;;;;;;1.00;1.00;;;;;21.65;74.92;100132.16;6335045;20;2736775;-59
2023/09/03 08:23:41;;;;;;;;;2.00;1.20;;;;;21.69;76.35;100139.03;6332606;20;2754442;-59
2023/09/03 08:26:12;;;;;;;;;1.80;1.80;;;;;21.56;77.07;100157.66;6304917;20;2746170;-59
2023/09/03 08:28:41;;;;;;;;;2.80;1.60;;;;;21.76;76.21;100155.69;6299971;20;2746122;-58
2023/09/03 08:31:11;;;;;;;;;2.80;2.00;;;;;21.92;75.77;100160.44;6302048;20;2744225;-59
2023/09/03 08:33:40;;;;;;;;;2.20;2.20;;;;;22.23;75.33;100168.28;6302970;20;2754458;-60
2023/09/03 08:36:10;;;;;;;;;1.60;1.60;;;;;21.87;75.28;100168.25;6301483;20;2738924;-60
2023/09/03 08:38:39;;;;;;;;;1.80;1.80;;;;;22.52;73.05;100165.28;6330590;20;2727486;-59
2023/09/03 08:41:09;;;;;;;;;3.60;2.00;;;;;22.63;72.50;100162.25;6332883;20;2752470;-60
2023/09/03 08:43:40;;;;;;;;;2.00;2.00;;;;;22.89;71.63;100170.47;6297545;20;2737900;-59
2023/09/03 08:46:15;;;;;;;;;1.40;1.40;;;;;23.82;69.03;100165.06;6333257;20;2733592;-60
2023/09/03 08:48:47;;;;;;;;;1.00;1.00;;;;;23.37;69.73;100174.50;6339195;20;2733674;-59
2023/09/03 08:51:20;;;;;;;;;1.20;1.20;;;;;23.15;69.29;100169.63;6336644;20;2741970;-59
2023/09/03 08:53:51;;;;;;;;;2.00;2.00;;;;;23.23;69.49;100173.25;6335386;20;2733606;-59
2023/09/03 08:56:21;;;;;;;;;3.00;2.40;;;;;23.16;69.74;100174.06;6336831;20;2750332;-59
2023/09/03 08:58:51;;;;;;;;;2.60;2.60;;;;;23.93;68.10;100169.38;6304658;20;2754911;-61
2023/09/03 09:01:22;;;;;;;;;1.20;1.20;;;;;23.85;67.18;100172.94;6306536;20;2754446;-60
2023/09/03 09:03:55;;;;;;;;;1.80;1.20;;;;;23.91;67.37;100167.81;6300361;20;2737874;-60
2023/09/03 09:06:25;;;;;;;;;1.40;1.40;;;;;24.06;68.71;100164.25;6303694;20;2746171;-60
2023/09/03 09:08:58;;;;;;;;;1.40;1.40;;;;;24.07;66.13;100155.00;6300498;20;2750395;-59
2023/09/03 09:11:40;;;;;;;;;1.00;1.00;;;;;24.46;64.99;100158.97;6306391;20;2746167;-59
2023/09/03 09:14:49;;;;;;;;;0.00;0.00;;;;;24.36;64.01;100153.63;6307060;20;2727333;-60
2023/09/03 09:17:18;;;;;;;;;0.40;0.40;;;;;24.16;64.19;100155.84;6337192;20;2727621;-60
2023/09/03 09:19:48;;;;;;;;;1.60;1.60;;;;;23.99;63.94;100154.13;6335413;20;2737938;-61
2023/09/03 09:22:17;;;;;;;;;0.40;0.40;;;;;24.22;63.79;100157.91;6311012;20;2741974;-60
2023/09/03 09:24:49;;;;;;;;;1.20;0.00;;;;;24.40;62.56;100156.88;6339256;20;2735707;-61
2023/09/03 09:27:21;;;;;;;;;0.00;0.00;;;;;24.60;62.74;100162.91;6309329;20;2723263;-61
2023/09/03 09:29:51;;;;;;;;;0.80;0.80;;;;;24.45;62.72;100169.09;6335076;20;2732691;-61
2023/09/03 09:32:24;;;;;;;;;1.60;1.00;;;;;24.53;63.17;100174.56;6329059;20;2732570;-62
2023/09/03 09:34:54;;;;;;;;;0.40;0.40;;;;;24.47;62.74;100175.25;6303881;20;2724415;-59
2023/09/03 09:37:23;;;;;;;;;1.00;1.00;;;;;24.39;64.51;100183.47;6337710;20;2742113;-60
2023/09/03 09:39:53;;;;;;;;;1.60;0.40;;;;;24.48;63.62;100173.38;6309305;20;2737773;-59
2023/09/03 09:42:22;;;;;;;;;0.80;0.80;;;;;24.89;61.95;100170.56;6336187;20;2728412;-58
2023/09/03 09:44:52;;;;;;;;;0.40;0.40;;;;;24.99;62.00;100165.75;6337242;20;2724331;-59
2023/09/03 09:47:22;;;;;;;;;0.00;0.00;;;;;25.71;59.69;100175.78;6334517;20;2723237;-57
2023/09/03 09:49:52;;;;;;;;;0.00;0.00;;;;;26.08;56.24;100176.94;6333336;20;2731633;-59
2023/09/03 09:52:22;;;;;;;;;0.00;0.00;;;;;25.42;57.35;100180.03;6331951;20;2727431;-59
2023/09/03 09:54:51;;;;;;;;;0.00;0.00;;;;;25.25;58.92;100187.50;6336825;20;2727372;-59
2023/09/03 09:57:23;;;;;;;;;2.40;0.00;;;;;25.47;59.23;100163.88;6338649;20;2725512;-59
2023/09/03 10:00:01;;;;;;;;;0.00;0.00;;;;;25.18;60.09;100165.34;6337421;20;2733644;-58
2023/09/03 10:02:32;;;;;;;;;0.00;0.00;;;;;25.11;59.90;100175.31;6334991;20;2731591;-59
2023/09/03 10:05:10;;;;;;;;;0.00;0.00;;;;;25.42;58.26;100180.03;6334130;20;2727497;-59
2023/09/03 10:07:41;;;;;;;;;0.00;0.00;;;;;25.38;58.59;100175.91;6339600;20;2727481;-58
2023/09/03 10:10:11;;;;;;;;;0.00;0.00;;;;;24.97;58.31;100171.41;6328745;20;2727354;-58
2023/09/03 10:12:40;;;;;;;;;0.00;0.00;;;;;24.88;60.91;100174.34;6335984;20;2733638;-59
2023/09/03 10:15:13;;;;;;;;;0.00;0.00;;;;;25.67;58.95;100175.25;6335866;20;2733582;-59
2023/09/03 10:17:52;;;;;;;;;0.00;0.00;;;;;25.13;58.42;100183.38;6329970;20;2727563;-59
2023/09/03 10:20:23;;;;;;;;;0.00;0.00;;;;;24.86;59.26;100174.53;6335793;20;2725283;-58
2023/09/03 10:22:53;;;;;;;;;1.40;0.00;;;;;24.72;58.67;100176.13;6335158;20;2718017;-59
2023/09/03 10:25:29;;;;;;;;;1.20;0.40;;;;;24.62;59.47;100178.19;6334952;20;2721110;-58
2023/09/03 10:28:06;;;;;;;;;0.00;0.00;;;;;24.86;59.35;100179.16;6336569;20;2728504;-58
2023/09/03 10:30:41;;;;;;;;;0.00;0.00;;;;;24.60;59.21;100174.75;6336936;20;2728454;-59
2023/09/03 10:33:11;;;;;;;;;0.00;0.00;;;;;24.50;60.52;100163.09;6334873;20;2733731;-58
2023/09/03 10:36:18;;;;;;;;;0.00;0.00;;;;;24.79;60.59;100172.66;6335019;20;2727412;-58
2023/09/03 10:38:48;;;;;;;;;0.00;0.00;;;;;25.06;60.47;100166.72;6336525;20;2722174;-58
2023/09/03 10:41:25;;;;;;;;;0.00;0.00;;;;;25.26;58.78;100171.88;6339382;20;2731558;-57
2023/09/03 10:43:56;;;;;;;;;0.40;0.40;;;;;25.57;57.20;100164.50;6335151;20;2730642;-57
2023/09/03 10:46:25;;;;;;;;;1.00;0.00;;;;;25.45;56.92;100171.44;6338160;20;2726464;-58
2023/09/03 10:48:57;;;;;;;;;2.20;0.00;;;;;25.75;55.94;100161.47;6336890;20;2742007;-58
2023/09/03 10:51:37;;;;;;;;;0.00;0.00;;;;;25.23;58.25;100155.75;6305186;20;2735748;-58
2023/09/03 10:54:24;;;;;;;;;0.00;0.00;;;;;25.38;56.58;100152.06;6335017;20;2727450;-59
2023/09/03 10:57:06;;;;;;;;;0.00;0.00;;;;;25.21;57.54;100152.31;6336418;20;2727593;-58
2023/09/03 11:00:10;;;;;;;;;1.00;0.00;;;;;25.33;58.63;100139.84;6333114;20;2725449;-58
2023/09/03 11:02:41;;;;;;;;;0.00;0.00;;;;;25.25;59.77;100148.16;6343484;20;2727373;-59
2023/09/03 11:05:24;;;;;;;;;0.40;0.00;;;;;25.06;59.71;100144.75;6336756;20;2725309;-58
2023/09/03 11:08:34;;;;;;;;;0.00;0.00;;;;;25.12;60.08;100160.56;6331792;20;2728446;-59
2023/09/03 11:11:05;;;;;;;;;0.80;0.80;;;;;25.50;60.60;100146.16;6335827;20;2739865;-58
2023/09/03 11:13:34;;;;;;;;;1.00;1.00;;;;;25.27;61.05;100143.34;6302689;20;2750315;-59
2023/09/03 11:16:07;;;;;;;;;0.60;0.60;;;;;25.44;60.00;100144.97;6303304;20;2727386;-60
2023/09/03 11:18:36;;;;;;;;;0.40;0.40;;;;;25.30;59.98;100148.47;6334053;20;2727411;-58
2023/09/03 11:21:06;;;;;;;;;0.80;0.20;;;;;25.27;60.27;100143.34;6328004;20;2723388;-60
2023/09/03 11:23:36;;;;;;;;;2.20;1.40;;;;;25.21;59.82;100133.06;6328210;20;2750535;-60